• Join FlightAware (Why Join?)
  • Login
  • US Flag 
04:02AM EDT


 

Airport Tracker/Info


-or-


 

Live Flight TrackerFlight Track Log ✈ DAL268 ✈ 17-Jun-2013 ✈ KJFK - LLBG / TLV

Flight Track Log - Related Links

Times and Time Zones

All times are in EDT time to prevent confusion due to time zone crossing. See the DAL268 flight status page for this flight to view local times or setup timezone preferences in your user account.

Time Position Orientation Groundspeed Altitude Reporting Facility
EDT Latitude Longitude Course Direction KTS MPH feet Rate Location/Type
12:55AM 40.6370 -73.7790 North 2 2  Level FlightAware
12:56AM 40.6380 -73.7790 360° North 2 2  Level FlightAware
12:57AM 40.6370 -73.7790 90° East 2 2  Level FlightAware
12:58AM 40.6000 -73.4598 90° East  Level FlightAware Approximate
01:00AM 40.5842 -73.3867 108° East  Level FlightAware Approximate
01:00AM 40.6360 -73.7790 97° East 2 2  Level FlightAware
01:01AM 40.5639 -73.2027 97° East  Level FlightAware Approximate
01:03AM 40.5857 -73.3928 108° East  Level FlightAware Approximate
01:04AM 40.5645 -73.2091 97° East  Level FlightAware Approximate
01:05AM 40.5500 -73.0193 90° East  Level FlightAware Approximate
01:05AM 40.6350 -73.7780 90° East 20 23  Level FlightAware
01:06AM 40.6350 -73.7770 90° East 16 18 60 Level FlightAware
01:06AM 40.6360 -73.7760 37° Northeast 27 31 60 Level FlightAware
01:07AM 40.6380 -73.7750 21° North 16 18 60 Level FlightAware
01:07AM 40.6400 -73.7730 37° Northeast 33 38 60 Level FlightAware
01:07AM 40.6410 -73.7720 37° Northeast 15 17 60 Level FlightAware
01:08AM 40.6430 -73.7710 21° North 33 38 60 Level FlightAware
01:08AM 40.6450 -73.7700 21° North 30 35 120 Level FlightAware
01:09AM 40.6460 -73.7690 37° Northeast 33 38 120 Level FlightAware
01:09AM 40.6480 -73.7690 360° North 28 32 120 Level FlightAware
01:10AM 40.6490 -73.7670 57° Northeast 29 33 180 Level FlightAware
01:11AM 40.6480 -73.7650 123° Southeast 20 23 240 Level FlightAware
01:12AM 40.6210 -73.7860 211° Southwest 176 203 500 1,080 Climbing FlightAware
01:12AM 40.6000 -73.8010 208° Southwest 182 209 1,400 1,440 Climbing FlightAware
01:13AM 40.5810 -73.8150 209° Southwest 205 236 1,800 960 Climbing FlightAware
01:13AM 40.5640 -73.8260 206° Southwest 229 264 2,100 1,080 Climbing FlightAware
01:13AM 40.5320 -73.8430 202° Southwest 259 298 2,700 1,500 Climbing FlightAware
01:14AM 40.4800 -73.8360 174° South 291 335 3,900 1,980 Climbing FlightAware
01:14AM 40.4610 -73.8220 151° Southeast 298 343 4,600 2,520 Climbing FlightAware
01:15AM 40.4500 -73.8070 134° Southeast 300 345 5,100 2,520 Climbing FlightAware
01:15AM 40.4380 -73.7800 120° Southeast 305 351 5,800 2,700 Climbing FlightAware
01:15AM 40.4330 -73.7360 98° East 310 357 6,900 2,640 Climbing FlightAware
01:16AM 40.4380 -73.6830 83° East 316 364 8,100 2,340 Climbing FlightAware
01:16AM 40.4460 -73.6290 79° East 328 377 9,100 2,100 Climbing FlightAware
01:17AM 40.4610 -73.5500 76° East 341 392 10,600 1,620 Climbing FlightAware
01:18AM 40.4790 -73.4560 76° East 383 441 11,400 1,020 Climbing FlightAware
01:18AM 40.4970 -73.3550 77° East 421 484 12,100 1,500 Climbing FlightAware
01:19AM 40.5240 -73.2450 72° East 438 504 13,600 1,980 Climbing FlightAware
01:19AM 40.5361 -73.2177 60° Northeast 440 506 14,000 2,100 Climbing FlightAware ADS-B
01:20AM 40.5684 -73.1516 57° Northeast 449 517 15,000 1,980 Climbing FlightAware ADS-B
01:20AM 40.6010 -73.0775 60° Northeast 457 526 16,000 1,800 Climbing FlightAware ADS-B
01:21AM 40.6366 -73.0000 59° Northeast 468 539 16,900 1,740 Climbing FlightAware ADS-B
01:21AM 40.6739 -72.9216 58° Northeast 476 548 17,900 1,800 Climbing FlightAware ADS-B
01:22AM 40.7093 -72.8470 58° Northeast 483 556 18,800 1,800 Climbing FlightAware ADS-B
01:22AM 40.7468 -72.7664 58° Northeast 488 562 19,800 1,800 Climbing FlightAware ADS-B
01:23AM 40.7832 -72.6903 58° Northeast 492 566 20,700 1,620 Climbing FlightAware ADS-B
01:23AM 40.8200 -72.6109 58° Northeast 497 572 21,500 1,500 Climbing FlightAware ADS-B
01:24AM 40.8584 -72.5303 58° Northeast 501 577 22,300 1,500 Climbing FlightAware ADS-B
01:24AM 40.8969 -72.4491 58° Northeast 508 585 23,100 1,260 Climbing FlightAware ADS-B
01:25AM 40.9381 -72.3611 58° Northeast 515 593 23,700 1,500 Climbing FlightAware ADS-B
01:25AM 40.9762 -72.2778 59° Northeast 513 590 24,700 1,800 Climbing FlightAware ADS-B
01:26AM 41.0137 -72.1976 58° Northeast 515 593 25,500 1,440 Climbing FlightAware ADS-B
01:27AM 41.0522 -72.1139 59° Northeast 519 597 26,200 1,140 Climbing FlightAware ADS-B
01:27AM 41.1058 -71.9990 58° Northeast 525 604 26,900 960 Climbing FlightAware ADS-B
01:28AM 41.1680 -71.8620 59° Northeast 536 617 27,700 960 Climbing FlightAware
01:29AM 41.2280 -71.7320 58° Northeast 543 625 28,500 840 Climbing FlightAware
01:29AM 41.2760 -71.6260 59° Northeast 552 635 28,900 720 Climbing FlightAware
01:30AM 41.3340 -71.5000 58° Northeast 560 644 29,500 720 Climbing FlightAware
01:31AM 41.3940 -71.3690 59° Northeast 570 656 30,000 660 Climbing FlightAware
01:32AM 41.4500 -71.2440 59° Northeast 576 663 30,500 840 Climbing FlightAware
01:32AM 41.5110 -71.1070 59° Northeast 578 665 31,200 960 Climbing FlightAware
01:33AM 41.5700 -70.9750 59° Northeast 578 665 32,000 1,140 Climbing FlightAware
01:34AM 41.6300 -70.8410 59° Northeast 573 659 32,900 480 Climbing FlightAware
01:35AM 41.7200 -70.6400 59° Northeast 572 658 33,000  Climbing FlightAware
01:36AM 41.7700 -70.5240 60° Northeast 569 655 33,000  Level FlightAware
01:37AM 41.8630 -70.3120 59° Northeast 567 652 33,000  Level FlightAware
01:37AM 41.9120 -70.2020 59° Northeast 564 649 33,000  Level FlightAware
01:38AM 42.0000 -69.9970 60° Northeast 573 659 33,000  Level FlightAware
01:39AM 42.0760 -69.8210 60° Northeast 570 656 33,000  Level FlightAware
01:40AM 42.1420 -69.6670 60° Northeast 569 655 33,000  Level FlightAware
01:41AM 42.2070 -69.5150 60° Northeast 568 654 33,000  Level FlightAware
01:42AM 42.2610 -69.3890 60° Northeast 567 652 33,000  Level FlightAware
01:42AM 42.3120 -69.2650 61° Northeast 566 651 33,000  Level FlightAware
01:43AM 42.3650 -69.1410 60° Northeast 567 652 33,000  Level FlightAware
01:44AM 42.4130 -69.0260 60° Northeast 566 651 33,000  Level FlightAware
01:44AM 42.4700 -68.8890 61° Northeast 567 652 33,000  Level FlightAware
01:45AM 42.5340 -68.7320 61° Northeast 563 648 33,000  Level FlightAware
01:46AM 42.5900 -68.6010 60° Northeast 563 648 33,000  Level FlightAware
01:47AM 42.6270 -68.5130 60° Northeast 563 648 33,000  Level FlightAware
01:48AM 42.6820 -68.3850 60° Northeast 563 648 33,000  Level FlightAware
01:48AM 42.7210 -68.2910 61° Northeast 563 648 33,000  Level FlightAware
01:49AM 42.7720 -68.1710 60° Northeast 563 648 33,000  Level FlightAware
01:49AM 42.8120 -68.0770 60° Northeast 563 648 33,000  Level FlightAware
01:50AM 42.8680 -67.9460 60° Northeast 563 648 33,000  Level FlightAware
01:51AM 42.9690 -67.6640 64° Northeast 572 658 33,000  Level FlightAware
01:52AM 43.0200 -67.5250 63° Northeast 580 667 33,000  Level FlightAware
01:52AM 43.0670 -67.3490 70° East 580 667 33,000  Level FlightAware
01:54AM 43.1300 -67.1210 69° East 582 670 33,000  Level FlightAware
01:54AM 43.1680 -66.9880 69° East 578 665 33,000  Level FlightAware
01:56AM 43.2440 -66.7010 70° East 578 665 33,000  Level FlightAware
01:56AM 43.2990 -66.5230 67° East 575 662 33,000  Level FlightAware
01:57AM 43.3440 -66.3710 68° East 573 659 33,000  Level FlightAware
01:58AM 43.3900 -66.2370 65° Northeast 564 649 33,000  Level FlightAware
01:59AM 43.4430 -66.0930 63° Northeast 562 647 33,000  Level FlightAware
01:59AM 43.4860 -65.9830 62° Northeast 560 644 33,000  Level FlightAware
02:00AM 43.5210 -65.8910 62° Northeast 560 644 33,000  Level FlightAware
02:01AM 43.5790 -65.7380 62° Northeast 560 644 33,000  Level FlightAware
02:02AM 43.6350 -65.5910 62° Northeast 560 644 33,000  Level FlightAware
02:02AM 43.7140 -65.3790 63° Northeast 565 650 33,000  Level FlightAware
02:03AM 43.7630 -65.2470 63° Northeast 566 651 33,000  Level FlightAware
02:04AM 43.8100 -65.1220 62° Northeast 568 654 33,000  Level FlightAware
02:05AM 43.8640 -64.9760 63° Northeast 566 651 33,000  Level FlightAware
02:05AM 43.8940 -64.8950 63° Northeast 565 650 33,000  Level FlightAware
02:06AM 43.9740 -64.6760 63° Northeast 558 642 33,000  Level FlightAware
02:07AM 44.0200 -64.5510 63° Northeast 560 644 33,000  Level FlightAware
02:08AM 44.0740 -64.4010 63° Northeast 554 638 33,000  Level FlightAware
02:08AM 44.1220 -64.2680 63° Northeast 552 635 33,000  Level FlightAware
02:09AM 44.1700 -64.1350 63° Northeast 552 635 33,000  Level FlightAware
02:10AM 44.2160 -64.0080 63° Northeast 554 638 33,000  Level FlightAware
02:11AM 44.2380 -63.9440 64° Northeast 554 638 33,000  Level FlightAware
02:11AM 44.3280 -63.6870 64° Northeast 556 640 33,000  Level FlightAware
02:12AM 44.3810 -63.5390 63° Northeast 555 639 33,000  Level FlightAware
02:13AM 44.4230 -63.4200 64° Northeast 555 639 33,000  Level FlightAware
02:13AM 44.4660 -63.2940 64° Northeast 554 638 33,000  Level FlightAware
02:14AM 44.5150 -63.1530 64° Northeast 552 635 33,000  Level FlightAware
02:15AM 44.5950 -62.9210 64° Northeast 553 636 33,000  Level FlightAware
02:16AM 44.6400 -62.7850 65° Northeast 553 636 33,000  Level FlightAware
02:17AM 44.6840 -62.6520 65° Northeast 553 636 33,000  Level FlightAware
02:18AM 44.6490 -62.7570 245° Southwest 553 636 33,000  Level FlightAware
02:18AM 44.6810 -62.6630 64° Northeast 553 636 33,000  Level FlightAware
02:19AM 44.7260 -62.5270 65° Northeast 553 636 33,000  Level FlightAware
02:20AM 44.7600 -62.4240 65° Northeast 553 636 33,000  Level FlightAware
02:20AM 44.7990 -62.3050 65° Northeast 553 636 33,000  Level FlightAware
02:21AM 44.8320 -62.2050 65° Northeast 553 636 33,000  Level FlightAware
02:22AM 44.8660 -62.1020 65° Northeast 553 636 33,000  Level FlightAware
02:22AM 44.9100 -61.9690 65° Northeast 553 636 33,000  Level FlightAware
02:23AM 44.9430 -61.8680 65° Northeast 553 636 33,000  Level FlightAware
02:24AM 44.9880 -61.7320 65° Northeast 553 636 33,000  Level FlightAware
02:24AM 45.1930 -61.1140 65° Northeast 554 638 33,000  Level FlightAware
02:25AM 45.2320 -60.9910 66° East 553 636 33,000  Level FlightAware
02:26AM 45.2800 -60.8360 66° East 554 638 33,000  Level FlightAware
02:27AM 45.3260 -60.6900 66° East 553 636 33,000  Level FlightAware
02:27AM 45.3640 -60.5700 66° East 554 638 33,000  Level FlightAware
02:28AM 45.4120 -60.4170 66° East 556 640 33,000  Level FlightAware
02:29AM 45.4550 -60.2800 66° East 556 640 33,000  Level FlightAware
02:29AM 45.5030 -60.1220 67° East 555 639 33,000  Level FlightAware
02:30AM 45.5280 -60.0420 66° East 555 639 33,000  Level FlightAware
02:31AM 45.5870 -59.8500 66° East 556 640 33,000  Level FlightAware
02:31AM 45.6320 -59.6980 67° East 557 641 33,000  Level FlightAware
02:32AM 45.6720 -59.5670 66° East 559 643 33,000  Level FlightAware
02:33AM 45.7180 -59.4130 67° East 560 644 33,000 120 Level FlightAware
02:34AM 45.7600 -59.2730 67° East 563 648 33,200 540 Climbing FlightAware
02:34AM 45.8030 -59.1290 67° East 565 650 33,800 900 Climbing FlightAware
02:35AM 45.8440 -58.9870 67° East 563 648 34,500 780 Climbing FlightAware
02:36AM 45.8740 -58.8880 66° East 562 647 34,900 300 Climbing FlightAware
02:36AM 45.9300 -58.6950 67° East 562 647 35,000 60 Climbing FlightAware
02:37AM 45.9700 -58.5540 68° East 561 646 35,000  Level FlightAware
02:38AM 46.0100 -58.4160 67° East 562 647 35,000  Level FlightAware
02:38AM 46.0490 -58.2810 67° East 562 647 35,000  Level FlightAware
02:39AM 46.0940 -58.1230 68° East 561 646 35,000  Level FlightAware
02:40AM 46.1480 -57.9330 68° East 561 646 35,000  Level FlightAware
02:41AM 46.1800 -57.8250 67° East 561 646 35,000  Level FlightAware
02:42AM 46.2220 -57.6840 67° East 561 646 35,000  Level FlightAware
02:42AM 46.2820 -57.4500 70° East 561 646 35,000  Level FlightAware
02:43AM 46.3130 -57.3410 68° East 561 646 35,000  Level FlightAware
02:44AM 46.3770 -57.1050 68° East 564 649 35,000  Level FlightAware
02:45AM 46.4530 -56.8250 68° East 566 651 35,000  Level FlightAware
02:46AM 46.5100 -56.6040 69° East 570 656 35,000  Level FlightAware
02:47AM 46.5490 -56.4510 70° East 574 661 35,000  Level FlightAware
02:48AM 46.5780 -56.3390 69° East 576 663 35,000  Level FlightAware
02:48AM 46.6190 -56.1830 69° East 576 663 35,000  Level FlightAware
02:49AM 46.6560 -56.0380 70° East 576 663 35,000  Level FlightAware
02:50AM 46.6950 -55.8850 70° East 576 663 35,000  Level FlightAware
02:50AM 46.7330 -55.7320 70° East 578 665 35,000  Level FlightAware
02:51AM 46.7750 -55.5640 70° East 579 666 35,000  Level FlightAware
02:52AM 46.8140 -55.4100 70° East 580 667 35,000  Level FlightAware
02:53AM 46.8540 -55.2480 70° East 581 669 35,000  Level FlightAware
02:53AM 46.8900 -55.1000 70° East 582 670 35,000  Level FlightAware
02:54AM 46.9290 -54.9400 70° East 583 671 35,000  Level FlightAware
02:55AM 46.9600 -54.8140 70° East 584 672 35,000  Level FlightAware
02:55AM 47.0040 -54.6350 70° East 584 672 35,000  Level FlightAware
02:56AM 47.0400 -54.4820 71° East 585 673 35,000  Level FlightAware
02:57AM 47.0810 -54.3100 71° East 586 674 35,000  Level FlightAware
02:57AM 47.1150 -54.1630 71° East 585 673 35,000  Level FlightAware
02:58AM 47.1540 -53.9940 71° East 587 676 35,000  Level FlightAware
02:59AM 47.1890 -53.8430 71° East 587 676 35,000  Level FlightAware
03:00AM 47.2260 -53.6850 71° East 587 676 35,000  Level FlightAware
03:00AM 47.2640 -53.5220 71° East 588 677 35,000  Level FlightAware
03:01AM 47.3100 -53.3170 72° East 589 678 35,000  Level FlightAware
03:02AM 47.3360 -53.1990 72° East 589 678 35,000  Level FlightAware
03:03AM 47.3830 -52.9890 72° East 590 679 35,000  Level FlightAware
03:03AM 47.4180 -52.8320 72° East 591 680 35,000 -180 Level FlightAware
03:04AM 47.4510 -52.6830 72° East 589 678 34,800 -720 Descending FlightAware
03:05AM 47.4880 -52.5100 72° East 591 680 34,000 -600 Descending FlightAware
03:05AM 47.5190 -52.3680 72° East 590 679 34,000  Level FlightAware
03:06AM 47.5570 -52.1920 72° East 589 678 34,000  Level FlightAware
03:07AM 47.5930 -52.0230 72° East 588 677 34,000  Level FlightAware
03:07AM 47.6240 -51.8760 73° East 588 677 34,000  Level FlightAware
03:08AM 47.6540 -51.7340 73° East 588 677 34,000  Level FlightAware
03:09AM 47.6930 -51.5460 73° East 588 677 34,000  Level FlightAware
03:09AM 47.7210 -51.4070 73° East 588 677 34,000  Level FlightAware
03:11AM 47.7710 -51.1630 73° East 588 677 34,000  Level FlightAware
03:12AM 47.8120 -50.9660 73° East 588 677 34,000  Level FlightAware
03:12AM 47.8360 -50.8470 73° East 588 677 34,000  Level FlightAware
03:13AM 47.8680 -50.6890 73° East 588 677 34,000  Level FlightAware
03:14AM 47.8930 -50.5700 73° East 588 677 34,000  Level FlightAware
03:14AM 47.9250 -50.4120 73° East 588 677 34,000  Level FlightAware
03:15AM 47.9490 -50.2930 73° East 588 677 34,000  Level FlightAware
03:16AM 47.9820 -50.1350 73° East 588 677 34,000  Level FlightAware
03:16AM 48.0060 -50.0160 73° East 588 677 34,000  Level FlightAware
03:17AM 48.0390 -49.8570 73° East 588 677 34,000  Level FlightAware
03:18AM 48.1333 -49.2833 73° East 600 690 34,000  Level Gander Center
03:19AM 48.2000 -49.0333 68° East 600 690 34,000  Level Gander Center
03:20AM 48.2667 -48.8167 65° Northeast 600 690 34,000  Level Gander Center
03:21AM 48.3167 -48.5833 72° East 600 690 34,000  Level Gander Center
03:22AM 48.3667 -48.3333 73° East 600 690 34,000  Level Gander Center
03:23AM 48.4333 -48.1167 65° Northeast 600 690 34,000  Level Gander Center
03:24AM 48.4833 -47.8667 73° East 600 690 34,000  Level Gander Center
03:25AM 48.5333 -47.6333 72° East 600 690 34,000  Level Gander Center
03:27AM 48.6000 -47.3333 71° East 590 679 34,000  Level Gander Center
03:28AM 48.6667 -47.0833 68° East 600 690 34,000  Level Gander Center
03:29AM 48.7167 -46.8333 73° East 600 690 34,000  Level Gander Center
03:30AM 48.7667 -46.6167 71° East 600 690 34,000  Level Gander Center
03:32AM 48.8713 -46.2334 72° East  Level FlightAware Approximate
03:39AM 49.1765 -44.7441 72° East  Level FlightAware Approximate
03:40AM 49.2185 -44.5298 73° East  Level FlightAware Approximate
03:41AM 49.2601 -44.3152 73° East  Level FlightAware Approximate
03:42AM 49.3013 -44.1003 74° East  Level FlightAware Approximate
03:43AM 49.3422 -43.8849 74° East  Level FlightAware Approximate
03:44AM 49.3826 -43.6693 74° East  Level FlightAware Approximate
03:45AM 49.4226 -43.4532 74° East  Level FlightAware Approximate
03:46AM 49.4622 -43.2368 74° East  Level FlightAware Approximate
03:47AM 49.5015 -43.0201 74° East  Level FlightAware Approximate
03:48AM 49.5403 -42.8030 75° East  Level FlightAware Approximate
03:49AM 49.5787 -42.5856 75° East  Level FlightAware Approximate
03:50AM 49.6167 -42.3678 75° East  Level FlightAware Approximate
03:51AM 49.6543 -42.1497 75° East  Level FlightAware Approximate
03:52AM 49.6915 -41.9313 75° East  Level FlightAware Approximate
03:53AM 49.7282 -41.7125 75° East  Level FlightAware Approximate
03:54AM 49.7646 -41.4934 76° East  Level FlightAware Approximate
03:55AM 49.8005 -41.2740 76° East  Level FlightAware Approximate
03:56AM 49.8361 -41.0539 76° East  Level FlightAware Approximate
03:57AM 49.8713 -40.8334 76° East  Level FlightAware Approximate
03:58AM 49.9060 -40.6130 76° East  Level FlightAware Approximate
03:59AM 49.9402 -40.3923 76° East  Level FlightAware Approximate
04:00AM 49.9741 -40.1713 77° East  Level FlightAware Approximate
04:01AM 50.0072 -39.9498 77° East  Level FlightAware Approximate
04:02AM 50.0387 -39.7277 77° East  Level FlightAware Approximate
04:03AM 50.0698 -39.5052 78° East  Level FlightAware Approximate
04:04AM 50.1004 -39.2825 78° East  Level FlightAware Approximate
04:05AM 50.1307 -39.0595 78° East  Level FlightAware Approximate
04:06AM 50.1605 -38.8362 78° East  Level FlightAware Approximate
04:07AM 50.1899 -38.6126 78° East  Level FlightAware Approximate
04:08AM 50.2188 -38.3888 78° East  Level FlightAware Approximate
04:09AM 50.2473 -38.1646 79° East  Level FlightAware Approximate
04:10AM 50.2754 -37.9403 79° East  Level FlightAware Approximate
04:11AM 50.3031 -37.7156 79° East  Level FlightAware Approximate
04:12AM 50.3303 -37.4907 79° East  Level FlightAware Approximate
04:13AM 50.3571 -37.2655 79° East  Level FlightAware Approximate
04:14AM 50.3834 -37.0401 80° East  Level FlightAware Approximate
04:15AM 50.4093 -36.8145 80° East  Level FlightAware Approximate
04:16AM 50.4348 -36.5886 80° East  Level FlightAware Approximate
04:17AM 50.4598 -36.3624 80° East  Level FlightAware Approximate
04:18AM 50.4846 -36.1361 80° East  Level FlightAware Approximate
04:19AM 50.5089 -35.9095 80° East  Level FlightAware Approximate
04:20AM 50.5327 -35.6827 81° East  Level FlightAware Approximate
04:21AM 50.5562 -35.4556 81° East  Level FlightAware Approximate
04:22AM 50.5792 -35.2284 81° East  Level FlightAware Approximate
04:23AM 50.6017 -35.0009 81° East  Level FlightAware Approximate
04:24AM 50.6238 -34.7732 81° East  Level FlightAware Approximate
04:25AM 50.6455 -34.5453 81° East  Level FlightAware Approximate
04:26AM 50.6667 -34.3172 82° East  Level FlightAware Approximate
04:27AM 50.6875 -34.0888 82° East  Level FlightAware Approximate
04:28AM 50.7078 -33.8603 82° East  Level FlightAware Approximate
04:29AM 50.7277 -33.6316 82° East  Level FlightAware Approximate
04:30AM 50.7471 -33.4027 82° East  Level FlightAware Approximate
04:31AM 50.7661 -33.1736 82° East  Level FlightAware Approximate
04:32AM 50.7846 -32.9443 83° East  Level FlightAware Approximate
04:33AM 50.8027 -32.7149 83° East  Level FlightAware Approximate
04:34AM 50.8207 -32.4853 82° East  Level FlightAware Approximate
04:35AM 50.8395 -32.2558 83° East  Level FlightAware Approximate
04:36AM 50.8579 -32.0261 83° East  Level FlightAware Approximate
04:37AM 50.8758 -31.7963 83° East  Level FlightAware Approximate
04:38AM 50.8933 -31.5662 83° East  Level FlightAware Approximate
04:39AM 50.9103 -31.3360 83° East  Level FlightAware Approximate
04:40AM 50.9269 -31.1057 83° East  Level FlightAware Approximate
04:41AM 50.9430 -30.8751 84° East  Level FlightAware Approximate
04:42AM 50.9587 -30.6445 84° East  Level FlightAware Approximate
04:43AM 50.9739 -30.4136 84° East  Level FlightAware Approximate
04:44AM 50.9887 -30.1826 84° East  Level FlightAware Approximate
04:45AM 51.0068 -29.9525 77° East  Level FlightAware Approximate
04:46AM 51.0389 -29.7258 77° East  Level FlightAware Approximate
04:47AM 51.0706 -29.4988 77° East  Level FlightAware Approximate
04:48AM 51.1019 -29.2715 78° East  Level FlightAware Approximate
04:49AM 51.1327 -29.0439 78° East  Level FlightAware Approximate
04:50AM 51.1631 -28.8160 78° East  Level FlightAware Approximate
04:51AM 51.1930 -28.5877 78° East  Level FlightAware Approximate
04:52AM 51.2225 -28.3592 78° East  Level FlightAware Approximate
04:53AM 51.2516 -28.1304 78° East  Level FlightAware Approximate
04:54AM 51.2802 -27.9013 79° East  Level FlightAware Approximate
04:55AM 51.3083 -27.6720 79° East  Level FlightAware Approximate
04:56AM 51.3360 -27.4423 79° East  Level FlightAware Approximate
04:57AM 51.3633 -27.2124 79° East  Level FlightAware Approximate
04:58AM 51.3901 -26.9822 79° East  Level FlightAware Approximate
04:59AM 51.4164 -26.7517 80° East  Level FlightAware Approximate
05:00AM 51.4423 -26.5210 80° East  Level FlightAware Approximate
05:01AM 51.4678 -26.2900 80° East  Level FlightAware Approximate
05:02AM 51.4931 -26.0588 80° East  Level FlightAware Approximate
05:03AM 51.5179 -25.8278 80° East  Level FlightAware Approximate
05:04AM 51.5423 -25.5965 80° East  Level FlightAware Approximate
05:05AM 51.5662 -25.3650 80° East  Level FlightAware Approximate
05:06AM 51.5896 -25.1333 81° East  Level FlightAware Approximate
05:07AM 51.6126 -24.9013 81° East  Level FlightAware Approximate
05:08AM 51.6351 -24.6691 81° East  Level FlightAware Approximate
05:09AM 51.6572 -24.4366 81° East  Level FlightAware Approximate
05:10AM 51.6788 -24.2040 81° East  Level FlightAware Approximate
05:11AM 51.7000 -23.9711 82° East  Level FlightAware Approximate
05:12AM 51.7208 -23.7380 82° East  Level FlightAware Approximate
05:13AM 51.7418 -23.5049 82° East  Level FlightAware Approximate
05:14AM 51.7623 -23.2715 82° East  Level FlightAware Approximate
05:15AM 51.7824 -23.0380 82° East  Level FlightAware Approximate
05:16AM 51.8020 -22.8042 82° East  Level FlightAware Approximate
05:17AM 51.8211 -22.5702 82° East  Level FlightAware Approximate
05:18AM 51.8398 -22.3360 83° East  Level FlightAware Approximate
05:19AM 51.8580 -22.1017 83° East  Level FlightAware Approximate
05:20AM 51.8758 -21.8671 83° East  Level FlightAware Approximate
05:21AM 51.8931 -21.6324 83° East  Level FlightAware Approximate
05:22AM 51.9099 -21.3975 83° East  Level FlightAware Approximate
05:23AM 51.9262 -21.1624 83° East  Level FlightAware Approximate
05:24AM 51.9421 -20.9272 84° East  Level FlightAware Approximate
05:25AM 51.9575 -20.6917 84° East  Level FlightAware Approximate
05:26AM 51.9724 -20.4562 84° East  Level FlightAware Approximate
05:27AM 51.9869 -20.2204 84° East  Level FlightAware Approximate
05:28AM 52.0006 -19.9845 86° East  Level FlightAware Approximate
05:29AM 52.0093 -19.7479 86° East  Level FlightAware Approximate
05:30AM 52.0175 -19.5112 87° East  Level FlightAware Approximate
05:31AM 52.0253 -19.2744 87° East  Level FlightAware Approximate
05:32AM 52.0325 -19.0376 87° East  Level FlightAware Approximate
05:33AM 52.0393 -18.8006 87° East  Level FlightAware Approximate
05:34AM 52.0457 -18.5636 87° East  Level FlightAware Approximate
05:35AM 52.0515 -18.3266 88° East  Level FlightAware Approximate
05:36AM 52.0569 -18.0894 88° East  Level FlightAware Approximate
05:37AM 52.0618 -17.8527 88° East  Level FlightAware Approximate
05:38AM 52.0662 -17.6158 88° East  Level FlightAware Approximate
05:39AM 52.0701 -17.3790 88° East  Level FlightAware Approximate
05:40AM 52.0736 -17.1421 89° East  Level FlightAware Approximate
05:41AM 52.0766 -16.9051 89° East  Level FlightAware Approximate
05:42AM 52.0791 -16.6682 89° East  Level FlightAware Approximate
05:43AM 52.0811 -16.4312 89° East  Level FlightAware Approximate
05:44AM 52.0827 -16.1942 89° East  Level FlightAware Approximate
05:44AM 52.0030 -12.9050 89° East 548 631 37,000  Level FlightAware
05:45AM 52.0838 -15.9571 89° East  Level FlightAware Approximate
05:45AM 52.0030 -12.6880 90° East 548 631 37,000  Level FlightAware
05:46AM 52.0030 -12.5690 90° East 548 631 37,000  Level FlightAware
05:47AM 51.9960 -12.2640 92° East 37,000  Level FlightAware
05:48AM 51.9920 -11.9910 91° East 37,000  Level FlightAware
05:49AM 51.9870 -11.7030 92° East 37,000  Level FlightAware
05:50AM 51.9840 -11.5280 92° East 532 612 37,000  Level FlightAware
05:50AM 51.9820 -11.4050 91° East 531 611 37,000  Level FlightAware
05:51AM 51.9780 -11.2340 92° East 533 613 37,000  Level FlightAware
05:52AM 51.9740 -11.0740 92° East 534 615 37,000  Level FlightAware
05:52AM 51.9700 -10.8980 92° East 535 616 37,000  Level FlightAware
05:53AM 51.9660 -10.7500 92° East 535 616 37,000  Level FlightAware
05:54AM 51.9640 -10.6500 92° East 535 616 37,000  Level FlightAware
05:54AM 51.9570 -10.4020 93° East 534 615 37,000  Level FlightAware
05:56AM 51.9510 -10.1960 93° East 530 610 37,000  Level FlightAware
05:57AM 51.9380 -9.7990 93° East 523 602 37,000  Level FlightAware
05:58AM 51.9310 -9.6000 93° East 520 598 37,000  Level FlightAware
05:58AM 51.9260 -9.4640 93° East 518 596 37,000  Level FlightAware
05:59AM 51.9190 -9.2910 94° East 517 595 37,000  Level FlightAware
06:00AM 51.9130 -9.1330 93° East 514 592 37,000  Level FlightAware
06:00AM 51.9074 -8.9826 93° East 492 566 37,000  Level FlightAware UK
06:00AM 51.9120 -9.1070 93° East 514 592 37,000  Level FlightAware
06:01AM 51.8990 -8.7950 94° East 506 582 37,000  Level FlightAware
06:02AM 51.8924 -8.6419 94° East 490 564 37,000  Level FlightAware UK
06:02AM 51.8920 -8.6450 94° East 505 581 37,000  Level FlightAware
06:03AM 51.8860 -8.4940 94° East 503 579 37,000  Level FlightAware
06:03AM 51.8780 -8.3300 94° East 502 578 37,000  Level FlightAware
06:04AM 51.8716 -8.1919 94° East 494 568 37,000  Level FlightAware UK
06:04AM 51.8700 -8.1580 94° East 501 577 37,000  Level FlightAware
06:05AM 51.8619 -7.9686 94° East 492 566 37,000  Level FlightAware UK
06:05AM 51.8600 -7.9460 94° East 497 572 37,000  Level FlightAware
06:06AM 51.8498 -7.7464 94° East 494 568 37,000  Level FlightAware UK
06:06AM 51.8580 -7.9090 94° East 496 571 37,000  Level FlightAware
06:07AM 51.8390 -7.5390 95° East 491 565 37,000  Level FlightAware
06:07AM 51.8323 -7.4178 95° East 484 557 37,000  Level FlightAware UK
06:07AM 51.8310 -7.3930 95° East 490 564 37,000  Level FlightAware
06:08AM 51.8230 -7.2540 95° East 490 564 37,000  Level FlightAware
06:09AM 51.8143 -7.0894 95° East 494 568 37,000  Level FlightAware UK
06:09AM 51.8130 -7.0830 95° East 493 567 37,000  Level FlightAware
06:10AM 51.8050 -6.9470 95° East 494 568 37,000  Level FlightAware
06:10AM 51.7945 -6.7373 95° East 504 580 37,000  Level FlightAware UK
06:10AM 51.7970 -6.7740 95° East 492 566 37,000  Level FlightAware
06:11AM 51.7910 -6.5950 93° East 491 565 37,000  Level FlightAware
06:12AM 51.7870 -6.4820 93° East 491 565 37,000  Level FlightAware
06:13AM 51.7778 -6.2769 93° East 496 571 37,000  Level FlightAware UK
06:13AM 51.7780 -6.2700 93° East 489 563 37,000  Level FlightAware
06:13AM 51.7720 -6.1500 95° East 489 563 37,000  Level FlightAware
06:14AM 51.7650 -5.9720 94° East 491 565 37,000  Level FlightAware
06:15AM 51.7586 -5.8399 94° East 490 564 37,000  Level FlightAware UK
06:15AM 51.7550 -5.7670 94° East 495 570 37,000  Level FlightAware
06:16AM 51.7480 -5.6140 94° East 497 572 37,000  Level FlightAware
06:16AM 51.7400 -5.4560 95° East 502 578 37,000  Level FlightAware
06:17AM 51.7320 -5.2990 95° East 503 579 37,000  Level FlightAware
06:18AM 51.7240 -5.1500 95° East 503 579 37,000  Level FlightAware
06:18AM 51.7170 -5.0150 95° East 504 580 37,000  Level FlightAware
06:19AM 51.7065 -4.8122 95° East 500 575 37,000  Level FlightAware UK
06:19AM 51.7070 -4.8240 95° East 505 581 37,000  Level FlightAware
06:20AM 51.6988 -4.6766 95° East 496 571 37,000  Level FlightAware UK
06:20AM 51.6990 -4.6750 95° East 503 579 37,000  Level FlightAware
06:20AM 51.6970 -4.6410 95° East 503 579 37,000  Level FlightAware
06:21AM 51.6821 -4.3857 95° East 496 571 37,000  Level FlightAware UK
06:21AM 51.6800 -4.3580 95° East 503 579 37,000  Level FlightAware
06:22AM 51.6720 -4.2240 95° East 502 578 37,000  Level FlightAware
06:22AM 51.6632 -4.0739 95° East 498 573 37,000  Level FlightAware UK
06:23AM 51.6620 -4.0500 95° East 499 574 37,000  Level FlightAware
06:23AM 51.6520 -3.8990 96° East 497 572 37,000  Level FlightAware
06:24AM 51.6438 -3.7639 96° East 492 566 37,000  Level FlightAware UK
06:24AM 51.6420 -3.7300 96° East 498 573 37,000  Level FlightAware
06:25AM 51.6251 -3.4760 96° East 492 566 37,000  Level FlightAware UK
06:25AM 51.6320 -3.5860 96° East 499 574 37,000  Level FlightAware
06:26AM 51.6175 -3.3649 96° East 494 568 37,000  Level FlightAware UK
06:26AM 51.6143 -3.3198 96° East 502 578 37,000  Level FlightAware ADS-B
06:26AM 51.6062 -3.2012 96° East 503 579 37,000  Level FlightAware ADS-B
06:27AM 51.5978 -3.0824 96° East 503 579 37,000  Level FlightAware ADS-B
06:27AM 51.5894 -2.9640 96° East 502 578 37,000  Level FlightAware ADS-B
06:28AM 51.5810 -2.8422 96° East 501 577 37,000  Level FlightAware ADS-B
06:29AM 51.5738 -2.7313 96° East 501 577 37,000  Level FlightAware ADS-B
06:29AM 51.5666 -2.6207 96° East 500 575 37,000  Level FlightAware ADS-B
06:30AM 51.5593 -2.5066 96° East 499 574 37,000  Level FlightAware ADS-B
06:30AM 51.5508 -2.3818 96° East 498 573 37,000  Level FlightAware ADS-B
06:31AM 51.5428 -2.2681 96° East 498 573 37,000  Level FlightAware ADS-B
06:31AM 51.5348 -2.1507 96° East 498 573 37,000  Level FlightAware ADS-B
06:32AM 51.5264 -2.0337 97° East 497 572 37,000  Level FlightAware ADS-B
06:32AM 51.5182 -1.9199 97° East 497 572 37,000  Level FlightAware ADS-B
06:33AM 51.5100 -1.8067 97° East 496 571 37,000  Level FlightAware ADS-B
06:33AM 51.5018 -1.6973 97° East 497 572 37,000  Level FlightAware ADS-B
06:34AM 51.4935 -1.5844 97° East 496 571 37,000  Level FlightAware ADS-B
06:34AM 51.4852 -1.4751 97° East 496 571 37,000  Level FlightAware ADS-B
06:35AM 51.4767 -1.3658 97° East 496 571 37,000  Level FlightAware ADS-B
06:35AM 51.4676 -1.2492 97° East 496 571 37,000  Level FlightAware ADS-B
06:36AM 51.4586 -1.1329 97° East 496 571 37,000  Level FlightAware ADS-B
06:36AM 51.4499 -1.0239 97° East 496 571 37,000  Level FlightAware ADS-B
06:37AM 51.4405 -0.9075 97° East 495 570 37,000  Level FlightAware ADS-B
06:37AM 51.4311 -0.7915 97° East 494 568 37,000  Level FlightAware ADS-B
06:38AM 51.4219 -0.6832 98° East 492 566 37,000  Level FlightAware ADS-B
06:38AM 51.4128 -0.5715 97° East 491 565 37,000  Level FlightAware ADS-B
06:39AM 51.4034 -0.4639 98° East 490 564 37,000  Level FlightAware ADS-B
06:39AM 51.3942 -0.3562 98° East 489 563 37,000  Level FlightAware ADS-B
06:40AM 51.3843 -0.2419 98° East 488 562 37,000  Level FlightAware ADS-B
06:40AM 51.3747 -0.1315 98° East 487 560 37,000  Level FlightAware ADS-B
06:41AM 51.3653 -0.0249 98° East 485 558 37,000  Level FlightAware ADS-B
06:41AM 51.3556 0.0847 98° East 483 556 37,000  Level FlightAware ADS-B
06:42AM 51.3445 0.2047 98° East 483 556 37,000  Level FlightAware ADS-B
06:43AM 51.3345 0.3140 98° East 483 556 37,000  Level FlightAware ADS-B
06:43AM 51.3239 0.4271 98° East 485 558 37,000  Level FlightAware ADS-B
06:43AM 51.3165 0.5085 98° East 485 558 37,000  Level FlightAware ADS-B
06:44AM 51.3128 0.5476 99° East 485 558 37,000  Level FlightAware ADS-B
06:44AM 51.3025 0.6569 99° East 484 557 37,000  Level FlightAware ADS-B
06:44AM 51.2992 0.6922 98° East 485 558 37,000  Level FlightAware ADS-B
06:45AM 51.2923 0.7626 99° East 485 558 37,000  Level FlightAware ADS-B
06:45AM 51.2819 0.8720 99° East 485 558 37,000  Level FlightAware ADS-B
06:46AM 51.2710 0.9815 99° East 485 558 37,000  Level FlightAware ADS-B
06:46AM 51.2603 1.0908 99° East 485 558 37,000  Level FlightAware ADS-B
06:47AM 51.2454 1.2427 99° East 490 564 37,000  Level FlightAware UK
06:47AM 51.2430 1.2680 99° East 485 558 37,000  Level FlightAware
06:47AM 51.2380 1.3136 100° East 486 559 37,000 -180 Level FlightAware ADS-B
06:48AM 51.2206 1.4315 100° East 492 566 36,900  Descending FlightAware UK
06:48AM 51.2129 1.4555 100° East 485 558 37,000 120 Climbing FlightAware ADS-B
06:49AM 51.1800 1.5570 117° Southeast 471 542 37,000  Level FlightAware
06:49AM 51.1679 1.5944 117° Southeast 470 541 37,000  Level FlightAware ADS-B
06:49AM 51.1401 1.6930 117° Southeast 492 566 37,000  Level FlightAware UK
06:49AM 51.1272 1.7405 117° Southeast 475 547 37,000  Level FlightAware ADS-B
06:50AM 51.0826 1.9048 117° Southeast 496 571 37,000  Level FlightAware UK
06:51AM 51.0646 1.9708 117° Southeast 475 547 37,000  Level FlightAware ADS-B
06:51AM 51.0373 2.0656 115° Southeast 471 542 37,000  Level FlightAware ADS-B
06:52AM 51.0125 2.1531 114° Southeast 470 541 37,000  Level FlightAware ADS-B
06:52AM 51.0090 2.1628 120° Southeast 469 540 37,000  Level FlightAware ADS-B
06:53AM 50.9631 2.3211 115° Southeast 467 537 37,000  Level FlightAware ADS-B
06:53AM 50.9344 2.4201 115° Southeast 467 537 37,000  Level FlightAware ADS-B
06:53AM 50.9221 2.4603 116° Southeast 465 535 37,000  Level FlightAware ADS-B
06:54AM 50.8830 2.5960 115° Southeast 464 534 37,000  Level FlightAware
06:55AM 50.8440 2.7250 116° Southeast 466 536 37,000  Level FlightAware
06:55AM 50.8109 2.8360 115° Southeast 465 535 37,000  Level FlightAware ADS-B
06:56AM 50.7680 2.9810 115° Southeast 469 540 37,000  Level FlightAware
06:56AM 50.7509 3.0336 117° Southeast 469 540 37,000  Level FlightAware ADS-B
06:57AM 50.7033 3.1917 115° Southeast 471 542 37,000  Level FlightAware ADS-B
06:58AM 50.6460 3.3810 115° Southeast 474 545 37,000  Level FlightAware
06:58AM 50.6347 3.4184 115° Southeast 472 543 37,000  Level FlightAware ADS-B
06:59AM 50.6050 3.5120 117° Southeast 479 551 37,000  Level FlightAware
06:59AM 50.5904 3.5625 114° Southeast 472 543 37,000  Level FlightAware ADS-B
07:00AM 50.5500 3.6910 116° Southeast 482 555 37,000  Level FlightAware
07:00AM 50.5304 3.7544 116° Southeast 482 555 37,000  Level FlightAware ADS-B
07:01AM 50.4680 3.9560 116° Southeast 485 558 37,000  Level FlightAware
07:02AM 50.4300 4.0760 116° Southeast 486 559 37,000  Level FlightAware
07:03AM 50.3850 4.2180 116° Southeast 486 559 37,000  Level FlightAware
07:03AM 50.3440 4.3470 116° Southeast 487 560 37,000  Level FlightAware
07:04AM 50.3020 4.4760 116° Southeast 487 560 37,000  Level FlightAware
07:04AM 50.2976 4.4904 116° Southeast 1 1 37,000  Level FlightAware UK
07:05AM 50.2375 4.6803 116° Southeast 1 1 37,000  Level FlightAware UK
07:05AM 50.2430 4.6620 116° Southeast 487 560 37,000  Level FlightAware
07:06AM 50.1820 4.8530 116° Southeast 487 560 37,000  Level FlightAware
07:07AM 50.1240 5.0280 117° Southeast 487 560 37,000  Level FlightAware
07:08AM 50.0776 5.1691 117° Southeast 489 563 37,000  Level FlightAware ADS-B
07:08AM 50.0390 5.2880 117° Southeast 490 564 37,000  Level FlightAware
07:09AM 50.0152 5.3601 117° Southeast 489 563 37,000  Level FlightAware ADS-B
07:09AM 49.9767 5.4757 117° Southeast 489 563 37,000  Level FlightAware ADS-B
07:11AM 49.9080 5.6820 117° Southeast 491 565 37,000  Level FlightAware
07:11AM 49.8500 5.8510 118° Southeast 491 565 37,000  Level FlightAware
07:12AM 49.8070 5.9780 118° Southeast 492 566 37,000  Level FlightAware
07:13AM 49.7600 6.1180 117° Southeast 493 567 37,000  Level FlightAware
07:13AM 49.7210 6.2300 118° Southeast 494 568 37,000  Level FlightAware
07:14AM 49.6720 6.3740 118° Southeast 496 571 37,000  Level FlightAware
07:15AM 49.6160 6.5330 118° Southeast 494 568 37,000  Level FlightAware
07:16AM 49.5330 6.7730 118° Southeast 495 570 37,000  Level FlightAware
07:17AM 49.4920 6.8910 118° Southeast 494 568 37,000  Level FlightAware
07:18AM 49.4400 7.0350 119° Southeast 494 568 37,000  Level FlightAware
07:18AM 49.3970 7.1580 118° Southeast 492 566 37,000  Level FlightAware
07:19AM 49.3470 7.2970 119° Southeast 492 566 37,000  Level FlightAware
07:20AM 49.3080 7.4040 119° Southeast 489 563 37,000  Level FlightAware
07:21AM 49.2600 7.5410 118° Southeast 487 560 37,000  Level FlightAware
07:21AM 49.2120 7.6720 119° Southeast 486 559 37,000  Level FlightAware
07:22AM 49.1720 7.7800 120° Southeast 485 558 37,000  Level FlightAware
07:23AM 49.1190 7.9250 119° Southeast 485 558 37,000  Level FlightAware
07:23AM 49.0750 8.0490 118° Southeast 490 564 37,000  Level FlightAware
07:24AM 49.0270 8.1780 120° Southeast 490 564 37,000  Level FlightAware
07:25AM 48.9390 8.4140 120° Southeast 490 564 37,000  Level FlightAware
07:26AM 48.8860 8.4930 136° Southeast 483 556 37,000  Level FlightAware
07:27AM 48.8170 8.6050 133° Southeast 487 560 37,000  Level FlightAware
07:27AM 48.7650 8.6850 135° Southeast 487 560 37,000  Level FlightAware
07:28AM 48.6780 8.8180 135° Southeast 486 559 37,000  Level FlightAware
07:29AM 48.6060 8.9300 134° Southeast 486 559 37,000  Level FlightAware
07:30AM 48.5390 9.0310 135° Southeast 487 560 37,000  Level FlightAware
07:31AM 48.4950 9.0990 134° Southeast 485 558 37,000  Level FlightAware
07:31AM 48.3780 9.2760 135° Southeast 483 556 37,000  Level FlightAware
07:32AM 48.3070 9.3850 134° Southeast 481 554 37,000  Level FlightAware
07:33AM 48.2580 9.4550 136° Southeast 480 552 37,000  Level FlightAware
07:33AM 48.1710 9.5710 138° Southeast 472 543 37,000  Level FlightAware
07:34AM 48.1050 9.6570 139° Southeast 471 542 37,000  Level FlightAware
07:35AM 48.0290 9.7540 140° Southeast 469 540 37,000  Level FlightAware
07:35AM 47.9630 9.8370 140° Southeast 469 540 37,000  Level FlightAware
07:36AM 47.8710 9.9540 140° Southeast 467 537 37,000  Level FlightAware
07:37AM 47.8060 10.0330 141° Southeast 473 544 37,000  Level FlightAware
07:38AM 47.7170 10.1330 143° Southeast 471 542 37,000  Level FlightAware
07:39AM 47.6340 10.2230 144° Southeast 472 543 37,000  Level FlightAware
07:39AM 47.5510 10.3200 142° Southeast 475 547 37,000  Level FlightAware
07:40AM 47.5200 10.3750 130° Southeast 473 544 37,000  Level FlightAware
07:41AM 47.4180 10.5710 128° Southeast 477 549 37,000  Level FlightAware
07:42AM 47.3610 10.6820 127° Southeast 477 549 37,000  Level FlightAware
07:42AM 47.3180 10.7640 128° Southeast 477 549 37,000  Level FlightAware
07:43AM 47.2590 10.8770 128° Southeast 475 547 37,000  Level FlightAware
07:44AM 47.1590 11.0660 128° Southeast 474 545 37,000  Level FlightAware
07:45AM 47.0790 11.2180 128° Southeast 472 543 37,000  Level FlightAware
07:46AM 47.0250 11.3190 128° Southeast 472 543 37,000  Level FlightAware
07:47AM 46.9710 11.4190 128° Southeast 470 541 37,000  Level FlightAware
07:47AM 46.9110 11.5320 128° Southeast 472 543 37,000  Level FlightAware
07:48AM 46.8560 11.6320 129° Southeast 474 545 37,000  Level FlightAware
07:49AM 46.8020 11.7320 128° Southeast 473 544 37,000  Level FlightAware
07:49AM 46.7390 11.8480 128° Southeast 474 545 37,000  Level FlightAware
07:50AM 46.6700 11.9440 136° Southeast 464 534 37,000  Level FlightAware
07:51AM 46.6010 12.0220 142° Southeast 471 542 37,000  Level FlightAware
07:53AM 46.5290 12.1050 142° Southeast 471 542 37,000  Level FlightAware
07:54AM 46.3630 12.2940 142° Southeast 473 544 37,000  Level FlightAware
07:54AM 46.2870 12.3800 142° Southeast 475 547 37,000  Level FlightAware
07:55AM 46.1780 12.5010 142° Southeast 474 545 37,000  Level FlightAware
07:56AM 46.0960 12.5940 142° Southeast 469 540 37,000  Level FlightAware
07:57AM 45.9970 12.7050 142° Southeast 475 547 37,000  Level FlightAware
07:57AM 45.9290 12.7810 142° Southeast 470 541 37,000  Level FlightAware
07:58AM 45.8500 12.8710 142° Southeast 470 541 37,000  Level FlightAware
07:59AM 45.7810 12.9470 142° Southeast 470 541 37,000  Level FlightAware
07:59AM 45.7160 13.0300 138° Southeast 477 549 37,000  Level FlightAware
08:00AM 45.6480 13.1300 134° Southeast 471 542 37,000  Level FlightAware
08:01AM 45.5780 13.2320 134° Southeast 475 547 37,000  Level FlightAware
08:02AM 45.5170 13.3220 134° Southeast 475 547 37,000  Level FlightAware
08:02AM 45.4540 13.4150 134° Southeast 469 540 37,000  Level FlightAware
08:03AM 45.3860 13.5170 133° Southeast 470 541 37,000  Level FlightAware
08:04AM 45.3280 13.6020 134° Southeast 471 542 37,000  Level FlightAware
08:04AM 45.2720 13.6850 134° Southeast 471 542 37,000  Level FlightAware
08:05AM 45.1680 13.8380 134° Southeast 471 542 37,000  Level FlightAware
08:06AM 45.1020 13.9340 134° Southeast 471 542 37,000  Level FlightAware
08:07AM 45.0260 14.0440 134° Southeast 471 542 37,000  Level FlightAware
08:08AM 44.9670 14.1290 134° Southeast 471 542 37,000  Level FlightAware
08:08AM 44.8940 14.2360 134° Southeast 472 543 37,000  Level FlightAware
08:09AM 44.8410 14.3120 135° Southeast 473 544 37,000  Level FlightAware
08:10AM 44.7480 14.4490 134° Southeast 474 545 37,000  Level FlightAware
08:11AM 44.7360 14.4670 133° Southeast 480 552 37,000  Level FlightAware
08:11AM 44.6240 14.6310 134° Southeast 480 552 37,000  Level FlightAware
08:13AM 44.5160 14.7970 132° Southeast 479 551 37,000  Level FlightAware
08:13AM 44.4640 14.9010 125° Southeast 481 554 37,000  Level FlightAware
08:14AM 44.4060 15.0100 127° Southeast 480 552 37,000  Level FlightAware
08:15AM 44.3460 15.1190 128° Southeast 479 551 37,000  Level FlightAware
08:16AM 44.2820 15.2360 127° Southeast 37,000  Level FlightAware
08:16AM 44.2190 15.3490 128° Southeast 479 551 37,000  Level FlightAware
08:17AM 44.1530 15.4680 128° Southeast 479 551 37,000  Level FlightAware
08:18AM 44.1000 15.5660 127° Southeast 478 550 37,000  Level FlightAware
08:18AM 44.0450 15.6670 127° Southeast 478 550 37,000  Level FlightAware
08:19AM 43.9840 15.7800 127° Southeast 479 551 37,000  Level FlightAware
08:20AM 43.9310 15.8750 128° Southeast 479 551 37,000  Level FlightAware
08:21AM 43.8980 15.9340 128° Southeast 478 550 37,000  Level FlightAware
08:21AM 43.7980 16.1160 127° Southeast 480 552 37,000  Level FlightAware
08:22AM 43.7410 16.2190 127° Southeast 480 552 37,000  Level FlightAware
08:23AM 43.6890 16.3110 128° Southeast 479 551 37,000  Level FlightAware
08:24AM 43.6240 16.4270 128° Southeast 480 552 37,000  Level FlightAware
08:24AM 43.5680 16.5270 128° Southeast 482 555 37,000  Level FlightAware
08:26AM 43.5210 16.6120 127° Southeast 482 555 37,000  Level FlightAware
08:26AM 43.3970 16.8300 128° Southeast 483 556 37,000  Level FlightAware
08:27AM 43.3350 16.9390 128° Southeast 483 556 37,000  Level FlightAware
08:28AM 43.2780 17.0380 128° Southeast 484 557 37,000  Level FlightAware
08:29AM 43.2150 17.1480 128° Southeast 482 555 37,000  Level FlightAware
08:29AM 43.1600 17.2440 128° Southeast 481 554 37,000  Level FlightAware
08:30AM 43.1050 17.3370 129° Southeast 481 554 37,000  Level FlightAware
08:31AM 43.0420 17.4490 128° Southeast 481 554 37,000  Level FlightAware
08:31AM 42.9860 17.5450 129° Southeast 481 554 37,000  Level FlightAware
08:32AM 42.9360 17.6300 129° Southeast 480 552 37,000  Level FlightAware
08:33AM 42.8800 17.7270 128° Southeast 480 552 37,000  Level FlightAware
08:33AM 42.8100 17.8450 129° Southeast 479 551 37,000  Level FlightAware
08:34AM 42.7570 17.9340 129° Southeast 479 551 37,000  Level FlightAware
08:35AM 42.6920 18.0450 129° Southeast 480 552 37,000  Level FlightAware
08:35AM 42.6460 18.1220 129° Southeast 480 552 37,000  Level FlightAware
08:36AM 42.5810 18.2320 129° Southeast 480 552 37,000  Level FlightAware
08:37AM 42.5150 18.3300 132° Southeast 480 552 37,000  Level FlightAware
08:38AM 42.4560 18.4090 135° Southeast 480 552 37,000  Level FlightAware
08:38AM 42.3790 18.5130 135° Southeast 481 554 37,000  Level FlightAware
08:39AM 42.3160 18.5970 135° Southeast 482 555 37,000  Level FlightAware
08:40AM 42.2560 18.6760 136° Southeast 482 555 37,000  Level FlightAware
08:41AM 42.1670 18.7970 135° Southeast 483 556 37,000  Level FlightAware
08:41AM 42.1000 18.8850 136° Southeast 483 556 37,000  Level FlightAware
08:42AM 42.0360 18.9700 135° Southeast 484 557 37,000  Level FlightAware
08:43AM 41.9750 19.0500 136° Southeast 484 557 37,000  Level FlightAware
08:43AM 41.9030 19.1450 136° Southeast 485 558 37,000  Level FlightAware
08:44AM 41.8320 19.2380 136° Southeast 487 560 37,000  Level FlightAware
08:45AM 41.7760 19.3110 136° Southeast 487 560 37,000  Level FlightAware
08:45AM 41.7280 19.3670 139° Southeast 488 562 37,000  Level FlightAware
08:46AM 41.6190 19.4900 140° Southeast 491 565 37,000  Level FlightAware
08:47AM 41.5500 19.5680 140° Southeast 491 565 37,000  Level FlightAware
08:48AM 41.4830 19.6420 140° Southeast 492 566 37,000  Level FlightAware
08:48AM 41.4010 19.7380 139° Southeast 495 570 37,000  Level FlightAware
08:49AM 41.3390 19.8200 135° Southeast 496 571 37,000  Level FlightAware
08:50AM 41.2770 19.9050 134° Southeast 497 572 37,000  Level FlightAware
08:50AM 41.1990 20.0100 135° Southeast 498 573 37,000  Level FlightAware
08:51AM 41.1280 20.1030 135° Southeast 498 573 37,000  Level FlightAware
08:52AM 41.0640 20.1900 134° Southeast 499 574 37,000  Level FlightAware
08:52AM 40.9920 20.2850 135° Southeast 498 573 37,000  Level FlightAware
08:53AM 40.9270 20.3710 135° Southeast 497 572 37,000  Level FlightAware
08:54AM 40.8580 20.4640 134° Southeast 497 572 37,000  Level FlightAware
08:55AM 40.7870 20.5560 136° Southeast 497 572 37,000  Level FlightAware
08:56AM 40.6740 20.7040 135° Southeast 500 575 37,000  Level FlightAware
08:56AM 40.6070 20.7920 135° Southeast 502 578 37,000  Level FlightAware
08:57AM 40.5390 20.8800 135° Southeast 502 578 37,000  Level FlightAware
08:58AM 40.4640 20.9750 136° Southeast 503 579 37,000  Level FlightAware
08:59AM 40.3960 21.0520 139° Southeast 497 572 37,000  Level FlightAware
08:59AM 40.3240 21.1370 138° Southeast 498 573 37,000  Level FlightAware
09:00AM 40.2470 21.2300 137° Southeast 507 583 37,000  Level FlightAware
09:01AM 40.1540 21.3690 131° Southeast 510 587 37,000  Level FlightAware
09:02AM 40.0910 21.4600 132° Southeast 505 581 37,000  Level FlightAware
09:02AM 40.0270 21.5490 133° Southeast 506 582 37,000  Level FlightAware
09:03AM 39.9630 21.6400 133° Southeast 507 583 37,000  Level FlightAware
09:04AM 39.8910 21.7450 132° Southeast 512 589 37,000  Level FlightAware
09:04AM 39.8280 21.8370 132° Southeast 512 589 37,000  Level FlightAware
09:05AM 39.7560 21.9400 132° Southeast 508 585 37,000  Level FlightAware
09:06AM 39.6940 22.0290 132° Southeast 510 587 37,000  Level FlightAware
09:07AM 39.6210 22.1350 132° Southeast 510 587 37,000  Level FlightAware
09:07AM 39.5570 22.2240 133° Southeast 512 589 37,000  Level FlightAware
09:08AM 39.4920 22.3190 132° Southeast 513 590 37,000  Level FlightAware
09:09AM 39.4200 22.4200 133° Southeast 515 593 37,000  Level FlightAware
09:09AM 39.3540 22.5140 132° Southeast 523 602 37,000  Level FlightAware
09:10AM 39.2810 22.6180 132° Southeast 525 604 37,000  Level FlightAware
09:12AM 39.1460 22.8100 132° Southeast 525 604 37,000  Level FlightAware
09:12AM 39.0660 22.9190 133° Southeast 528 608 37,000  Level FlightAware
09:13AM 38.9960 23.0180 132° Southeast 528 608 37,000  Level FlightAware
09:14AM 38.9390 23.0970 133° Southeast 528 608 37,000  Level FlightAware
09:14AM 38.8900 23.1630 134° Southeast 527 606 37,000  Level FlightAware
09:15AM 38.8310 23.2460 132° Southeast 526 605 37,000  Level FlightAware
09:16AM 38.7840 23.3100 133° Southeast 527 606 37,000  Level FlightAware
09:17AM 38.6160 23.5410 133° Southeast 530 610 37,000  Level FlightAware
09:18AM 38.5340 23.6550 133° Southeast 531 611 37,000  Level FlightAware
09:18AM 38.4570 23.7590 133° Southeast 534 615 37,000  Level FlightAware
09:19AM 38.3860 23.8560 133° Southeast 536 617 37,000  Level FlightAware
09:20AM 38.3170 23.9480 134° Southeast 536 617 37,000  Level FlightAware
09:20AM 38.2670 24.0170 133° Southeast 536 617 37,000  Level FlightAware
09:21AM 38.1710 24.1450 134° Southeast 536 617 37,000  Level FlightAware
09:22AM 38.0950 24.2480 133° Southeast 536 617 37,000  Level FlightAware
09:23AM 37.9960 24.3800 134° Southeast 536 617 37,000  Level FlightAware
09:23AM 37.9340 24.4790 128° Southeast 542 624 37,000  Level FlightAware
09:24AM 37.8670 24.5910 127° Southeast 542 624 37,000  Level FlightAware
09:25AM 37.8110 24.6880 126° Southeast 544 626 37,000  Level FlightAware
09:26AM 37.7280 24.8400 125° Southeast 545 627 37,000  Level FlightAware
09:26AM 37.6690 24.9460 125° Southeast 544 626 37,000  Level FlightAware
09:27AM 37.6040 25.0600 126° Southeast 545 627 37,000  Level FlightAware
09:28AM 37.5410 25.1680 126° Southeast 545 627 37,000  Level FlightAware
09:29AM 37.4820 25.2710 126° Southeast 547 629 37,000  Level FlightAware
09:29AM 37.4170 25.3850 126° Southeast 548 631 37,000  Level FlightAware
09:30AM 37.3750 25.4570 126° Southeast 548 631 37,000  Level FlightAware
09:31AM 37.2540 25.6660 126° Southeast 547 629 37,000  Level FlightAware
09:32AM 37.1950 25.7680 126° Southeast 547 629 37,000  Level FlightAware
09:33AM 37.1230 25.8920 126° Southeast 546 628 37,000  Level FlightAware
09:33AM 37.0840 25.9610 125° Southeast 547 629 37,000  Level FlightAware
09:34AM 37.0060 26.0940 126° Southeast 548 631 37,000  Level FlightAware
09:35AM 36.9360 26.2120 127° Southeast 548 631 37,000  Level FlightAware
09:35AM 36.8710 26.3240 126° Southeast 550 633 37,000  Level FlightAware
09:36AM 36.8100 26.4270 126° Southeast 550 633 37,000  Level FlightAware
09:37AM 36.7500 26.5290 126° Southeast 550 633 37,000  Level FlightAware
09:37AM 36.6830 26.6410 127° Southeast 551 634 37,000  Level FlightAware
09:38AM 36.6180 26.7500 127° Southeast 551 634 37,000  Level FlightAware
09:39AM 36.5570 26.8520 127° Southeast 551 634 37,000  Level FlightAware
09:39AM 36.5000 26.9460 127° Southeast 551 634 37,000  Level FlightAware
09:41AM 36.4140 27.0880 127° Southeast 551 634 37,000  Level FlightAware
09:41AM 36.3300 27.2280 127° Southeast 553 636 37,000  Level FlightAware
09:42AM 36.2880 27.3000 126° Southeast 553 636 37,000  Level FlightAware
09:43AM 36.2270 27.4050 126° Southeast 553 636 37,000  Level FlightAware
09:44AM 36.1500 27.5350 126° Southeast 553 636 37,000  Level FlightAware
09:44AM 36.1040 27.6140 126° Southeast 553 636 37,000  Level FlightAware
09:45AM 36.0420 27.7200 126° Southeast 553 636 37,000  Level FlightAware
09:46AM 35.9200 27.8980 130° Southeast 556 640 37,000  Level FlightAware
09:47AM 35.8100 28.0770 127° Southeast 556 640 37,000  Level FlightAware
09:48AM 35.7480 28.1780 127° Southeast 556 640 37,000  Level FlightAware
09:48AM 35.6790 28.2860 128° Southeast 557 641 37,000  Level FlightAware
09:49AM 35.6150 28.3890 127° Southeast 559 643 37,000  Level FlightAware
09:50AM 35.5510 28.4920 127° Southeast 559 643 37,000  Level FlightAware
09:50AM 35.4810 28.6030 128° Southeast 559 643 37,000  Level FlightAware
09:51AM 35.4120 28.7130 128° Southeast 558 642 37,000  Level FlightAware
09:52AM 35.3480 28.8130 128° Southeast 558 642 37,000  Level FlightAware
09:53AM 35.2800 28.9200 128° Southeast 558 642 37,000  Level FlightAware
09:53AM 35.2160 29.0220 128° Southeast 558 642 37,000  Level FlightAware
09:54AM 35.1430 29.1380 128° Southeast 558 642 37,000  Level FlightAware
09:55AM 35.0250 29.3240 128° Southeast 554 638 37,000  Level FlightAware
09:56AM 34.9770 29.4000 128° Southeast 554 638 37,000  Level FlightAware
09:57AM 34.8890 29.5310 129° Southeast 554 638 37,000  Level FlightAware
09:57AM 34.8160 29.6430 128° Southeast 554 638 37,000  Level FlightAware
09:58AM 34.7480 29.7480 128° Southeast 554 638 37,000  Level FlightAware
09:59AM 34.6860 29.8420 129° Southeast 554 638 37,000  Level FlightAware
10:00AM 34.6060 29.9680 128° Southeast 554 638 37,000  Level FlightAware
10:00AM 34.5770 30.0150 127° Southeast 554 638 37,000  Level FlightAware
10:01AM 34.5240 30.1480 116° Southeast 563 648 37,000  Level FlightAware
10:02AM 34.4320 30.3440 120° Southeast 559 643 37,000  Level FlightAware
10:03AM 34.3790 30.4520 121° Southeast 558 642 37,000  Level FlightAware
10:03AM 34.3260 30.5600 121° Southeast 558 642 37,000  Level FlightAware
10:04AM 34.2710 30.6740 120° Southeast 557 641 37,000  Level FlightAware
10:05AM 34.2140 30.7900 121° Southeast 557 641 37,000  Level FlightAware
10:06AM 34.1500 30.9270 119° Southeast 557 641 37,000  Level FlightAware
10:06AM 34.0880 31.0450 122° Southeast 557 641 37,000  Level FlightAware
10:07AM 34.0160 31.1910 121° Southeast 561 646 37,000  Level FlightAware
10:08AM 33.9550 31.3140 121° Southeast 561 646 37,000  Level FlightAware
10:09AM 33.8940 31.4370 121° Southeast 560 644 37,000  Level FlightAware
10:09AM 33.8390 31.5470 121° Southeast 560 644 37,000  Level FlightAware
10:10AM 33.7730 31.6800 121° Southeast 559 643 37,000  Level FlightAware
10:11AM 33.7200 31.7840 121° Southeast 558 642 37,000  Level FlightAware
10:12AM 33.6340 31.9560 121° Southeast 558 642 37,000  Level FlightAware
10:13AM 33.5790 32.0640 121° Southeast 556 640 37,000  Level FlightAware
10:13AM 33.5230 32.1720 122° Southeast 556 640 37,000  Level FlightAware
10:14AM 33.4650 32.2880 121° Southeast 554 638 37,000  Level FlightAware
10:15AM 33.3830 32.4470 122° Southeast 555 639 37,000 -60 Level FlightAware
10:16AM 33.3000 32.6100 121° Southeast 554 638 36,900 -420 Descending FlightAware
10:17AM 33.2640 32.6800 122° Southeast 554 638 36,400 -1,320 Descending FlightAware
10:17AM 33.2080 32.7870 122° Southeast 556 640 35,400 -2,100 Descending FlightAware
10:19AM 33.0860 33.0220 122° Southeast 558 642 32,000 -2,640 Descending FlightAware
10:19AM 33.0330 33.1260 121° Southeast 551 634 30,000 -2,700 Descending FlightAware
10:20AM 32.9810 33.2230 123° Southeast 537 618 28,500 -2,340 Descending FlightAware
10:21AM 32.9180 33.3440 122° Southeast 519 597 26,600 -2,400 Descending FlightAware
10:21AM 32.8690 33.4360 122° Southeast 502 578 25,000 -2,580 Descending FlightAware
10:22AM 32.8160 33.5370 122° Southeast 483 556 23,100 -2,520 Descending FlightAware
10:23AM 32.7690 33.6280 122° Southeast 465 535 21,400 -2,520 Descending FlightAware
10:24AM 32.7220 33.7170 122° Southeast 450 518 19,600 -2,520 Descending FlightAware
10:24AM 32.6720 33.8110 122° Southeast 435 501 17,800 -2,160 Descending FlightAware
10:25AM 32.6410 33.8700 122° Southeast 427 491 16,600 -2,400 Descending FlightAware
10:26AM 32.5860 33.9710 123° Southeast 414 476 14,600 -2,640 Descending FlightAware
10:26AM 32.5420 34.0540 122° Southeast 404 465 12,900 -2,400 Descending FlightAware
10:27AM 32.5010 34.1300 123° Southeast 395 455 11,300 -1,680 Descending FlightAware
10:28AM 32.4570 34.1930 130° Southeast 365 420 10,700 -600 Descending FlightAware
10:28AM 32.4050 34.2550 135° Southeast 321 369 10,500 -300 Descending FlightAware
10:29AM 32.3570 34.3120 135° Southeast 302 348 10,300 -420 Descending FlightAware
10:31AM 32.2910 34.3890 135° Southeast 292 336 9,700 -360 Descending FlightAware
10:31AM 32.2680 34.4160 135° Southeast 292 336 9,700  Level FlightAware
10:34AM 32.0624 34.7523 115° Southeast  Level FlightAware Approximate
10:35AM 32.0000 34.8667 125° Southeast  Level FlightAware Approximate
10:36AM 32.0095 34.8769 125° Southeast  Level Estimated
10:37AM 32.0095 34.8769 125° Southeast  Level Estimated
10:38AM 32.0095 34.8769 125° Southeast  Level Estimated
10:39AM 32.0095 34.8769 125° Southeast  Level Estimated
10:40AM 32.0095 34.8769 125° Southeast  Level Estimated
10:41AM 32.0095 34.8769 125° Southeast  Level Estimated
10:42AM 32.0095 34.8769 125° Southeast  Level Estimated